sensor_id;sensor_type;location;lat;lon;timestamp;pressure;altitude;pressure_sealevel;temperature
68440;BMP180;55421;51.600;5.718;2023-04-26T00:02:25;217041.41;;;4.70
68440;BMP180;55421;51.600;5.718;2023-04-26T00:04:53;217008.80;;;4.60
68440;BMP180;55421;51.600;5.718;2023-04-26T00:07:22;216986.80;;;4.60
68440;BMP180;55421;51.600;5.718;2023-04-26T00:09:50;216986.80;;;4.60
68440;BMP180;55421;51.600;5.718;2023-04-26T00:12:20;216977.59;;;4.56
68440;BMP180;55421;51.600;5.718;2023-04-26T00:14:47;216957.20;;;4.50
68440;BMP180;55421;51.600;5.718;2023-04-26T00:17:15;216957.59;;;4.50
68440;BMP180;55421;51.600;5.718;2023-04-26T00:19:41;216944.41;;;4.50
68440;BMP180;55421;51.600;5.718;2023-04-26T00:22:08;216977.59;;;4.56
68440;BMP180;55421;51.600;5.718;2023-04-26T00:24:34;216980.80;;;4.60
68440;BMP180;55421;51.600;5.718;2023-04-26T00:27:01;216986.80;;;4.60
68440;BMP180;55421;51.600;5.718;2023-04-26T00:29:30;216957.20;;;4.50
68440;BMP180;55421;51.600;5.718;2023-04-26T00:31:57;216941.59;;;4.50
68440;BMP180;55421;51.600;5.718;2023-04-26T00:34:23;216905.20;;;4.44
68440;BMP180;55421;51.600;5.718;2023-04-26T00:36:50;216873.20;;;4.40
68440;BMP180;55421;51.600;5.718;2023-04-26T00:39:16;216848.41;;;4.30
68440;BMP180;55421;51.600;5.718;2023-04-26T00:41:43;216823.20;;;4.30
68440;BMP180;55421;51.600;5.718;2023-04-26T00:44:09;216797.20;;;4.28
68440;BMP180;55421;51.600;5.718;2023-04-26T00:46:36;216773.20;;;4.20
68440;BMP180;55421;51.600;5.718;2023-04-26T00:49:02;216745.00;;;4.18
68440;BMP180;55421;51.600;5.718;2023-04-26T00:51:29;216731.80;;;4.10
68440;BMP180;55421;51.600;5.718;2023-04-26T00:53:57;216725.80;;;4.10
68440;BMP180;55421;51.600;5.718;2023-04-26T00:56:25;216721.00;;;4.10
68440;BMP180;55421;51.600;5.718;2023-04-26T00:58:52;216711.00;;;4.10
68440;BMP180;55421;51.600;5.718;2023-04-26T01:01:18;216708.20;;;4.10
68440;BMP180;55421;51.600;5.718;2023-04-26T01:03:45;216676.20;;;4.00
68440;BMP180;55421;51.600;5.718;2023-04-26T01:06:12;216676.20;;;4.00
68440;BMP180;55421;51.600;5.718;2023-04-26T01:08:40;216686.20;;;4.02
68440;BMP180;55421;51.600;5.718;2023-04-26T01:11:07;216687.41;;;4.02
68440;BMP180;55421;51.600;5.718;2023-04-26T01:13:35;216667.80;;;4.00
68440;BMP180;55421;51.600;5.718;2023-04-26T01:16:06;216636.00;;;4.00
68440;BMP180;55421;51.600;5.718;2023-04-26T01:18:34;216594.59;;;3.90
68440;BMP180;55421;51.600;5.718;2023-04-26T01:21:01;216548.59;;;3.80
68440;BMP180;55421;51.600;5.718;2023-04-26T01:23:30;216516.59;;;3.72
68440;BMP180;55421;51.600;5.718;2023-04-26T01:25:57;216487.80;;;3.70
68440;BMP180;55421;51.600;5.718;2023-04-26T01:28:23;216457.59;;;3.64
68440;BMP180;55421;51.600;5.718;2023-04-26T01:30:50;216434.80;;;3.60
68440;BMP180;55421;51.600;5.718;2023-04-26T01:33:16;216411.20;;;3.52
68440;BMP180;55421;51.600;5.718;2023-04-26T01:35:43;216392.80;;;3.50
68440;BMP180;55421;51.600;5.718;2023-04-26T01:38:09;216370.00;;;3.50
68440;BMP180;55421;51.600;5.718;2023-04-26T01:40:36;216352.20;;;3.46
68440;BMP180;55421;51.600;5.718;2023-04-26T01:43:03;216345.80;;;3.42
68440;BMP180;55421;51.600;5.718;2023-04-26T01:45:29;216369.59;;;3.50
68440;BMP180;55421;51.600;5.718;2023-04-26T01:47:56;216380.80;;;3.50
68440;BMP180;55421;51.600;5.718;2023-04-26T01:50:23;216381.80;;;3.50
68440;BMP180;55421;51.600;5.718;2023-04-26T01:52:49;216364.59;;;3.50
68440;BMP180;55421;51.600;5.718;2023-04-26T01:55:16;216344.20;;;3.42
68440;BMP180;55421;51.600;5.718;2023-04-26T01:57:43;216340.59;;;3.40
68440;BMP180;55421;51.600;5.718;2023-04-26T02:00:10;216351.00;;;3.42
68440;BMP180;55421;51.600;5.718;2023-04-26T02:02:37;216340.41;;;3.40
68440;BMP180;55421;51.600;5.718;2023-04-26T02:05:04;216326.41;;;3.40
68440;BMP180;55421;51.600;5.718;2023-04-26T02:07:31;216305.20;;;3.40
68440;BMP180;55421;51.600;5.718;2023-04-26T02:09:57;216299.59;;;3.38
68440;BMP180;55421;51.600;5.718;2023-04-26T02:12:24;216305.59;;;3.40
68440;BMP180;55421;51.600;5.718;2023-04-26T02:14:50;216309.59;;;3.40
68440;BMP180;55421;51.600;5.718;2023-04-26T02:17:16;216310.00;;;3.40
68440;BMP180;55421;51.600;5.718;2023-04-26T02:19:43;216318.00;;;3.40
68440;BMP180;55421;51.600;5.718;2023-04-26T02:22:09;216331.41;;;3.40
68440;BMP180;55421;51.600;5.718;2023-04-26T02:24:36;216326.41;;;3.40
68440;BMP180;55421;51.600;5.718;2023-04-26T02:27:04;216296.41;;;3.36
68440;BMP180;55421;51.600;5.718;2023-04-26T02:29:30;216299.59;;;3.36
68440;BMP180;55421;51.600;5.718;2023-04-26T02:31:57;216310.41;;;3.38
68440;BMP180;55421;51.600;5.718;2023-04-26T02:34:24;216282.41;;;3.30
68440;BMP180;55421;51.600;5.718;2023-04-26T02:36:50;216280.80;;;3.30
68440;BMP180;55421;51.600;5.718;2023-04-26T02:39:17;216286.41;;;3.30
68440;BMP180;55421;51.600;5.718;2023-04-26T02:41:44;216278.41;;;3.30
68440;BMP180;55421;51.600;5.718;2023-04-26T02:44:11;216266.41;;;3.30
68440;BMP180;55421;51.600;5.718;2023-04-26T02:46:37;216269.59;;;3.30
68440;BMP180;55421;51.600;5.718;2023-04-26T02:49:04;216268.00;;;3.30
68440;BMP180;55421;51.600;5.718;2023-04-26T02:51:31;216237.20;;;3.30
68440;BMP180;55421;51.600;5.718;2023-04-26T02:53:58;216212.00;;;3.20
68440;BMP180;55421;51.600;5.718;2023-04-26T02:56:25;216203.80;;;3.20
68440;BMP180;55421;51.600;5.718;2023-04-26T02:58:51;216206.41;;;3.20
68440;BMP180;55421;51.600;5.718;2023-04-26T03:01:18;216198.80;;;3.20
68440;BMP180;55421;51.600;5.718;2023-04-26T03:03:44;216191.00;;;3.20
68440;BMP180;55421;51.600;5.718;2023-04-26T03:06:11;216198.80;;;3.20
68440;BMP180;55421;51.600;5.718;2023-04-26T03:08:37;216194.80;;;3.20
68440;BMP180;55421;51.600;5.718;2023-04-26T03:11:04;216193.59;;;3.20
68440;BMP180;55421;51.600;5.718;2023-04-26T03:13:30;216139.00;;;3.10
68440;BMP180;55421;51.600;5.718;2023-04-26T03:15:57;216088.41;;;3.00
68440;BMP180;55421;51.600;5.718;2023-04-26T03:18:23;216081.20;;;3.00
68440;BMP180;55421;51.600;5.718;2023-04-26T03:20:51;216066.80;;;2.94
68440;BMP180;55421;51.600;5.718;2023-04-26T03:23:17;216066.41;;;2.94
68440;BMP180;55421;51.600;5.718;2023-04-26T03:25:44;216086.80;;;3.00
68440;BMP180;55421;51.600;5.718;2023-04-26T03:28:11;216079.59;;;3.00
68440;BMP180;55421;51.600;5.718;2023-04-26T03:30:37;216062.41;;;2.90
68440;BMP180;55421;51.600;5.718;2023-04-26T03:33:04;216038.20;;;2.90
68440;BMP180;55421;51.600;5.718;2023-04-26T03:35:31;216017.41;;;2.90
68440;BMP180;55421;51.600;5.718;2023-04-26T03:37:57;216017.80;;;2.90
68440;BMP180;55421;51.600;5.718;2023-04-26T03:40:24;215994.59;;;2.80
68440;BMP180;55421;51.600;5.718;2023-04-26T03:42:50;215988.20;;;2.80
68440;BMP180;55421;51.600;5.718;2023-04-26T03:45:17;215982.20;;;2.80
68440;BMP180;55421;51.600;5.718;2023-04-26T03:47:44;215956.59;;;2.72
68440;BMP180;55421;51.600;5.718;2023-04-26T03:50:11;215941.41;;;2.70
68440;BMP180;55421;51.600;5.718;2023-04-26T03:52:37;215897.00;;;2.60
68440;BMP180;55421;51.600;5.718;2023-04-26T03:55:05;215845.00;;;2.58
68440;BMP180;55421;51.600;5.718;2023-04-26T03:57:35;215815.00;;;2.50
68440;BMP180;55421;51.600;5.718;2023-04-26T04:00:02;215806.59;;;2.50
68440;BMP180;55421;51.600;5.718;2023-04-26T04:02:33;215796.59;;;2.50
68440;BMP180;55421;51.600;5.718;2023-04-26T04:05:00;215804.59;;;2.50
68440;BMP180;55421;51.600;5.718;2023-04-26T04:07:26;215825.00;;;2.50
68440;BMP180;55421;51.600;5.718;2023-04-26T04:09:53;215835.80;;;2.50
68440;BMP180;55421;51.600;5.718;2023-04-26T04:12:19;215842.59;;;2.60
68440;BMP180;55421;51.600;5.718;2023-04-26T04:14:48;215863.59;;;2.60
68440;BMP180;55421;51.600;5.718;2023-04-26T04:17:14;215861.00;;;2.60
68440;BMP180;55421;51.600;5.718;2023-04-26T04:19:41;215848.20;;;2.60
68440;BMP180;55421;51.600;5.718;2023-04-26T04:22:07;215846.59;;;2.58
68440;BMP180;55421;51.600;5.718;2023-04-26T04:24:34;215823.00;;;2.50
68440;BMP180;55421;51.600;5.718;2023-04-26T04:27:00;215790.59;;;2.42
68440;BMP180;55421;51.600;5.718;2023-04-26T04:29:29;215787.00;;;2.46
68440;BMP180;55421;51.600;5.718;2023-04-26T04:31:56;215791.00;;;2.50
68440;BMP180;55421;51.600;5.718;2023-04-26T04:34:22;215817.41;;;2.50
68440;BMP180;55421;51.600;5.718;2023-04-26T04:36:49;215868.80;;;2.60
68440;BMP180;55421;51.600;5.718;2023-04-26T04:39:19;215915.80;;;2.70
68440;BMP180;55421;51.600;5.718;2023-04-26T04:41:45;215961.80;;;2.80
68440;BMP180;55421;51.600;5.718;2023-04-26T04:44:14;216019.80;;;2.88
68440;BMP180;55421;51.600;5.718;2023-04-26T04:46:43;216097.59;;;3.00
68440;BMP180;55421;51.600;5.718;2023-04-26T04:49:11;216189.41;;;3.20
68440;BMP180;55421;51.600;5.718;2023-04-26T04:51:38;216256.41;;;3.30
68440;BMP180;55421;51.600;5.718;2023-04-26T04:54:25;216278.41;;;3.30
68440;BMP180;55421;51.600;5.718;2023-04-26T04:56:52;216314.41;;;3.40
68440;BMP180;55421;51.600;5.718;2023-04-26T04:59:18;216328.80;;;3.40
68440;BMP180;55421;51.600;5.718;2023-04-26T05:01:45;216334.00;;;3.40
68440;BMP180;55421;51.600;5.718;2023-04-26T05:04:12;216334.59;;;3.40
68440;BMP180;55421;51.600;5.718;2023-04-26T05:06:38;216344.20;;;3.40
68440;BMP180;55421;51.600;5.718;2023-04-26T05:09:05;216365.80;;;3.50
68440;BMP180;55421;51.600;5.718;2023-04-26T05:11:31;216369.59;;;3.50
68440;BMP180;55421;51.600;5.718;2023-04-26T05:13:58;216367.00;;;3.50
68440;BMP180;55421;51.600;5.718;2023-04-26T05:16:25;216406.41;;;3.50
68440;BMP180;55421;51.600;5.718;2023-04-26T05:18:51;216434.80;;;3.60
68440;BMP180;55421;51.600;5.718;2023-04-26T05:21:18;216469.20;;;3.68
68440;BMP180;55421;51.600;5.718;2023-04-26T05:23:45;216519.80;;;3.78
68440;BMP180;55421;51.600;5.718;2023-04-26T05:26:15;216575.80;;;3.90
68440;BMP180;55421;51.600;5.718;2023-04-26T05:28:42;216628.41;;;3.94
68440;BMP180;55421;51.600;5.718;2023-04-26T05:31:09;216686.59;;;4.02
68440;BMP180;55421;51.600;5.718;2023-04-26T05:33:36;216746.59;;;4.16
68440;BMP180;55421;51.600;5.718;2023-04-26T05:36:03;216805.20;;;4.30
68440;BMP180;55421;51.600;5.718;2023-04-26T05:38:29;216888.41;;;4.40
68440;BMP180;55421;51.600;5.718;2023-04-26T05:40:56;216937.59;;;4.50
68440;BMP180;55421;51.600;5.718;2023-04-26T05:43:23;216980.80;;;4.60
68440;BMP180;55421;51.600;5.718;2023-04-26T05:45:54;217001.20;;;4.60
68440;BMP180;55421;51.600;5.718;2023-04-26T05:48:22;217004.41;;;4.60
68440;BMP180;55421;51.600;5.718;2023-04-26T05:50:50;217019.59;;;4.60
68440;BMP180;55421;51.600;5.718;2023-04-26T05:53:18;217030.80;;;4.68
68440;BMP180;55421;51.600;5.718;2023-04-26T05:55:45;217038.00;;;4.70
68440;BMP180;55421;51.600;5.718;2023-04-26T05:58:13;217081.00;;;4.70
68440;BMP180;55421;51.600;5.718;2023-04-26T06:00:40;217047.41;;;4.66
68440;BMP180;55421;51.600;5.718;2023-04-26T06:03:07;217012.80;;;4.60
68440;BMP180;55421;51.600;5.718;2023-04-26T06:05:35;217002.41;;;4.60
68440;BMP180;55421;51.600;5.718;2023-04-26T06:08:04;216991.20;;;4.60
68440;BMP180;55421;51.600;5.718;2023-04-26T06:10:31;216995.20;;;4.60
68440;BMP180;55421;51.600;5.718;2023-04-26T06:12:57;217007.20;;;4.60
68440;BMP180;55421;51.600;5.718;2023-04-26T06:15:24;217040.80;;;4.70
68440;BMP180;55421;51.600;5.718;2023-04-26T06:17:52;217111.00;;;4.80
68440;BMP180;55421;51.600;5.718;2023-04-26T06:20:19;217207.80;;;4.98
68440;BMP180;55421;51.600;5.718;2023-04-26T06:22:46;217297.20;;;5.10
68440;BMP180;55421;51.600;5.718;2023-04-26T06:25:12;217628.20;;;5.30
68440;BMP180;55421;51.600;5.718;2023-04-26T06:27:39;217935.00;;;5.50
68440;BMP180;55421;51.600;5.718;2023-04-26T06:30:06;218181.41;;;5.60
68440;BMP180;55421;51.600;5.718;2023-04-26T06:32:33;218624.00;;;5.80
68440;BMP180;55421;51.600;5.718;2023-04-26T06:35:00;218255.41;;;5.90
68440;BMP180;55421;51.600;5.718;2023-04-26T06:37:27;219060.41;;;6.00
68440;BMP180;55421;51.600;5.718;2023-04-26T06:39:53;219177.59;;;6.10
68440;BMP180;55421;51.600;5.718;2023-04-26T06:42:20;219535.20;;;6.20
68440;BMP180;55421;51.600;5.718;2023-04-26T06:44:46;219465.80;;;6.20
68440;BMP180;55421;51.600;5.718;2023-04-26T06:47:13;219035.80;;;6.20
68440;BMP180;55421;51.600;5.718;2023-04-26T06:49:39;219503.80;;;6.20
68440;BMP180;55421;51.600;5.718;2023-04-26T06:52:06;219393.80;;;6.20
68440;BMP180;55421;51.600;5.718;2023-04-26T06:54:33;219524.00;;;6.22
68440;BMP180;55421;51.600;5.718;2023-04-26T06:56:59;218866.00;;;6.30
68440;BMP180;55421;51.600;5.718;2023-04-26T06:59:26;219065.00;;;6.40
68440;BMP180;55421;51.600;5.718;2023-04-26T07:01:53;220394.59;;;6.50
68440;BMP180;55421;51.600;5.718;2023-04-26T07:04:20;221164.80;;;6.60
68440;BMP180;55421;51.600;5.718;2023-04-26T07:06:46;220063.59;;;6.74
68440;BMP180;55421;51.600;5.718;2023-04-26T07:09:13;218719.00;;;6.80
68440;BMP180;55421;51.600;5.718;2023-04-26T07:11:39;218364.00;;;6.90
68440;BMP180;55421;51.600;5.718;2023-04-26T07:14:06;218364.20;;;6.90
68440;BMP180;55421;51.600;5.718;2023-04-26T07:16:32;218326.41;;;7.00
68440;BMP180;55421;51.600;5.718;2023-04-26T07:18:59;218331.59;;;7.00
68440;BMP180;55421;51.600;5.718;2023-04-26T07:21:26;218329.20;;;7.00
68440;BMP180;55421;51.600;5.718;2023-04-26T07:23:57;218386.59;;;7.08
68440;BMP180;55421;51.600;5.718;2023-04-26T07:26:25;218470.80;;;7.20
68440;BMP180;55421;51.600;5.718;2023-04-26T07:28:55;218530.59;;;7.30
68440;BMP180;55421;51.600;5.718;2023-04-26T07:31:21;218564.59;;;7.40
68440;BMP180;55421;51.600;5.718;2023-04-26T07:33:48;218599.00;;;7.40
68440;BMP180;55421;51.600;5.718;2023-04-26T07:36:14;218598.59;;;7.42
68440;BMP180;55421;51.600;5.718;2023-04-26T07:38:41;218553.41;;;7.40
68440;BMP180;55421;51.600;5.718;2023-04-26T07:41:07;218557.00;;;7.40
68440;BMP180;55421;51.600;5.718;2023-04-26T07:43:34;218583.80;;;7.40
68440;BMP180;55421;51.600;5.718;2023-04-26T07:46:01;218633.00;;;7.50
68440;BMP180;55421;51.600;5.718;2023-04-26T07:48:28;218707.20;;;7.62
68440;BMP180;55421;51.600;5.718;2023-04-26T07:50:54;218834.41;;;7.86
68440;BMP180;55421;51.600;5.718;2023-04-26T07:53:21;218919.41;;;8.00
68440;BMP180;55421;51.600;5.718;2023-04-26T07:55:51;218947.80;;;8.10
68440;BMP180;55421;51.600;5.718;2023-04-26T07:58:17;218961.00;;;8.10
68440;BMP180;55421;51.600;5.718;2023-04-26T08:00:44;218995.20;;;8.14
68440;BMP180;55421;51.600;5.718;2023-04-26T08:03:14;219022.80;;;8.20
68440;BMP180;55421;51.600;5.718;2023-04-26T08:05:43;219057.20;;;8.30
68440;BMP180;55421;51.600;5.718;2023-04-26T08:08:09;219060.41;;;8.30
68440;BMP180;55421;51.600;5.718;2023-04-26T08:10:39;219067.80;;;8.30
68440;BMP180;55421;51.600;5.718;2023-04-26T08:13:07;219057.20;;;8.30
68440;BMP180;55421;51.600;5.718;2023-04-26T08:15:33;219047.20;;;8.20
68440;BMP180;55421;51.600;5.718;2023-04-26T08:18:00;219064.80;;;8.30
68440;BMP180;55421;51.600;5.718;2023-04-26T08:20:26;219159.41;;;8.42
68440;BMP180;55421;51.600;5.718;2023-04-26T08:22:56;219218.00;;;8.54
68440;BMP180;55421;51.600;5.718;2023-04-26T08:25:23;219265.00;;;8.60
68440;BMP180;55421;51.600;5.718;2023-04-26T08:27:50;219325.80;;;8.70
68440;BMP180;55421;51.600;5.718;2023-04-26T08:30:18;219364.80;;;8.80
68440;BMP180;55421;51.600;5.718;2023-04-26T08:32:45;219388.80;;;8.82
68440;BMP180;55421;51.600;5.718;2023-04-26T08:35:12;219477.59;;;9.00
68440;BMP180;55421;51.600;5.718;2023-04-26T08:37:38;219644.80;;;9.30
68440;BMP180;55421;51.600;5.718;2023-04-26T08:40:06;219792.80;;;9.56
68440;BMP180;55421;51.600;5.718;2023-04-26T08:42:42;219914.20;;;9.80
68440;BMP180;55421;51.600;5.718;2023-04-26T08:45:10;220006.20;;;9.92
68440;BMP180;55421;51.600;5.718;2023-04-26T08:50:12;220198.80;;;10.30
68440;BMP180;55421;51.600;5.718;2023-04-26T08:52:41;220288.80;;;10.40
68440;BMP180;55421;51.600;5.718;2023-04-26T08:55:10;220252.80;;;10.40
68440;BMP180;55421;51.600;5.718;2023-04-26T08:57:38;220161.20;;;10.20
68440;BMP180;55421;51.600;5.718;2023-04-26T09:00:06;220026.20;;;9.98
68440;BMP180;55421;51.600;5.718;2023-04-26T09:02:39;219954.80;;;9.86
68440;BMP180;55421;51.600;5.718;2023-04-26T09:05:09;219871.41;;;9.70
68440;BMP180;55421;51.600;5.718;2023-04-26T09:07:44;219769.59;;;9.50
68440;BMP180;55421;51.600;5.718;2023-04-26T09:10:18;219669.80;;;9.34
68440;BMP180;55421;51.600;5.718;2023-04-26T09:12:53;219581.59;;;9.20
68440;BMP180;55421;51.600;5.718;2023-04-26T09:15:24;219507.00;;;9.10
68440;BMP180;55421;51.600;5.718;2023-04-26T09:17:52;219457.20;;;9.00
68440;BMP180;55421;51.600;5.718;2023-04-26T09:20:25;219468.80;;;9.00
68440;BMP180;55421;51.600;5.718;2023-04-26T09:23:08;219488.41;;;9.00
68440;BMP180;55421;51.600;5.718;2023-04-26T09:25:35;219507.80;;;9.08
68440;BMP180;55421;51.600;5.718;2023-04-26T09:28:18;219525.59;;;9.10
68440;BMP180;55421;51.600;5.718;2023-04-26T09:30:45;219578.80;;;9.20
68440;BMP180;55421;51.600;5.718;2023-04-26T09:33:11;219744.20;;;9.50
68440;BMP180;55421;51.600;5.718;2023-04-26T09:35:40;219978.41;;;9.90
68440;BMP180;55421;51.600;5.718;2023-04-26T09:38:17;220078.59;;;10.08
68440;BMP180;55421;51.600;5.718;2023-04-26T09:40:47;220111.00;;;10.10
68440;BMP180;55421;51.600;5.718;2023-04-26T09:43:17;220121.59;;;10.10
68440;BMP180;55421;51.600;5.718;2023-04-26T09:45:51;220108.00;;;10.10
68440;BMP180;55421;51.600;5.718;2023-04-26T09:48:21;220067.41;;;10.00
68440;BMP180;55421;51.600;5.718;2023-04-26T09:50:51;220134.41;;;10.20
68440;BMP180;55421;51.600;5.718;2023-04-26T09:53:45;220155.20;;;10.20
68440;BMP180;55421;51.600;5.718;2023-04-26T09:56:18;220150.00;;;10.20
68440;BMP180;55421;51.600;5.718;2023-04-26T09:58:58;220181.59;;;10.24
68440;BMP180;55421;51.600;5.718;2023-04-26T10:01:27;220240.00;;;10.40
68440;BMP180;55421;51.600;5.718;2023-04-26T10:03:56;220280.41;;;10.40
68440;BMP180;55421;51.600;5.718;2023-04-26T10:06:23;220341.59;;;10.50
68440;BMP180;55421;51.600;5.718;2023-04-26T10:08:50;220339.59;;;10.50
68440;BMP180;55421;51.600;5.718;2023-04-26T10:11:17;220334.80;;;10.50
68440;BMP180;55421;51.600;5.718;2023-04-26T10:13:44;220328.00;;;10.50
68440;BMP180;55421;51.600;5.718;2023-04-26T10:16:10;220332.41;;;10.50
68440;BMP180;55421;51.600;5.718;2023-04-26T10:18:37;220352.41;;;10.52
68440;BMP180;55421;51.600;5.718;2023-04-26T10:21:10;220379.20;;;10.60
68440;BMP180;55421;51.600;5.718;2023-04-26T10:23:39;220393.20;;;10.60
68440;BMP180;55421;51.600;5.718;2023-04-26T10:26:54;220380.41;;;10.60
68440;BMP180;55421;51.600;5.718;2023-04-26T10:29:24;220397.80;;;10.60
68440;BMP180;55421;51.600;5.718;2023-04-26T10:34:28;220400.80;;;10.60
68440;BMP180;55421;51.600;5.718;2023-04-26T10:37:13;220505.80;;;10.82
68440;BMP180;55421;51.600;5.718;2023-04-26T10:39:45;220756.80;;;11.28
68440;BMP180;55421;51.600;5.718;2023-04-26T10:42:23;220970.00;;;11.68
68440;BMP180;55421;51.600;5.718;2023-04-26T10:45:04;221043.20;;;11.80
68440;BMP180;55421;51.600;5.718;2023-04-26T10:47:47;221034.41;;;11.78
68440;BMP180;55421;51.600;5.718;2023-04-26T10:50:13;221034.00;;;11.80
68440;BMP180;55421;51.600;5.718;2023-04-26T10:55:39;221128.41;;;11.90
68440;BMP180;55421;51.600;5.718;2023-04-26T10:58:27;221168.80;;;12.00
68440;BMP180;55421;51.600;5.718;2023-04-26T11:01:16;221140.80;;;11.92
68440;BMP180;55421;51.600;5.718;2023-04-26T11:04:07;221122.80;;;11.90
68440;BMP180;55421;51.600;5.718;2023-04-26T11:09:37;221197.00;;;12.02
68440;BMP180;55421;51.600;5.718;2023-04-26T11:12:13;221211.00;;;12.10
68440;BMP180;55421;51.600;5.718;2023-04-26T11:14:44;221180.59;;;12.00
68440;BMP180;55421;51.600;5.718;2023-04-26T11:17:13;221095.20;;;11.88
68440;BMP180;55421;51.600;5.718;2023-04-26T11:19:40;221065.59;;;11.80
68440;BMP180;55421;51.600;5.718;2023-04-26T11:22:07;221092.00;;;11.90
68440;BMP180;55421;51.600;5.718;2023-04-26T11:24:35;221111.20;;;11.90
68440;BMP180;55421;51.600;5.718;2023-04-26T11:27:08;221122.80;;;11.90
68440;BMP180;55421;51.600;5.718;2023-04-26T11:29:36;221130.00;;;11.90
68440;BMP180;55421;51.600;5.718;2023-04-26T11:32:03;221181.00;;;12.00
68440;BMP180;55421;51.600;5.718;2023-04-26T11:34:37;221180.59;;;12.00
68440;BMP180;55421;51.600;5.718;2023-04-26T11:37:07;221159.00;;;12.00
68440;BMP180;55421;51.600;5.718;2023-04-26T11:39:34;221217.00;;;12.10
68440;BMP180;55421;51.600;5.718;2023-04-26T11:42:10;221226.20;;;12.10
68440;BMP180;55421;51.600;5.718;2023-04-26T11:44:39;221244.20;;;12.10
68440;BMP180;55421;51.600;5.718;2023-04-26T11:47:06;221188.20;;;12.00
68440;BMP180;55421;51.600;5.718;2023-04-26T11:49:36;221151.80;;;12.00
68440;BMP180;55421;51.600;5.718;2023-04-26T11:52:04;221143.20;;;11.94
68440;BMP180;55421;51.600;5.718;2023-04-26T11:54:34;221150.20;;;11.98
68440;BMP180;55421;51.600;5.718;2023-04-26T11:57:12;221224.20;;;12.10
68440;BMP180;55421;51.600;5.718;2023-04-26T11:59:39;221398.20;;;12.40
68440;BMP180;55421;51.600;5.718;2023-04-26T12:02:06;221613.41;;;12.80
68440;BMP180;55421;51.600;5.718;2023-04-26T12:04:33;221781.00;;;13.10
68440;BMP180;55421;51.600;5.718;2023-04-26T12:07:03;221894.41;;;13.30
68440;BMP180;55421;51.600;5.718;2023-04-26T12:09:30;221894.41;;;13.30
68440;BMP180;55421;51.600;5.718;2023-04-26T12:12:02;221872.00;;;13.20
68440;BMP180;55421;51.600;5.718;2023-04-26T12:14:36;221816.00;;;13.16
68440;BMP180;55421;51.600;5.718;2023-04-26T12:17:05;221737.20;;;13.00
68440;BMP180;55421;51.600;5.718;2023-04-26T12:19:39;221683.20;;;12.90
68440;BMP180;55421;51.600;5.718;2023-04-26T12:22:07;221609.20;;;12.80
68440;BMP180;55421;51.600;5.718;2023-04-26T12:24:34;221481.59;;;12.56
68440;BMP180;55421;51.600;5.718;2023-04-26T12:27:04;221363.41;;;12.34
68440;BMP180;55421;51.600;5.718;2023-04-26T12:29:32;221322.20;;;12.30
68440;BMP180;55421;51.600;5.718;2023-04-26T12:32:00;221278.59;;;12.20
68440;BMP180;55421;51.600;5.718;2023-04-26T12:34:27;221210.59;;;12.10
68440;BMP180;55421;51.600;5.718;2023-04-26T12:36:54;221134.41;;;11.90
68440;BMP180;55421;51.600;5.718;2023-04-26T12:39:20;221189.41;;;12.00
68440;BMP180;55421;51.600;5.718;2023-04-26T12:41:47;221264.59;;;12.20
68440;BMP180;55421;51.600;5.718;2023-04-26T12:44:14;221335.80;;;12.30
68440;BMP180;55421;51.600;5.718;2023-04-26T12:46:41;221361.80;;;12.36
68440;BMP180;55421;51.600;5.718;2023-04-26T12:49:07;221339.00;;;12.30
68440;BMP180;55421;51.600;5.718;2023-04-26T12:51:34;221352.59;;;12.32
68440;BMP180;55421;51.600;5.718;2023-04-26T12:54:00;221390.20;;;12.40
68440;BMP180;55421;51.600;5.718;2023-04-26T12:56:28;221452.59;;;12.50
68440;BMP180;55421;51.600;5.718;2023-04-26T12:58:55;221540.41;;;12.68
68440;BMP180;55421;51.600;5.718;2023-04-26T13:01:22;221579.41;;;12.70
68440;BMP180;55421;51.600;5.718;2023-04-26T13:03:48;221615.20;;;12.80
68440;BMP180;55421;51.600;5.718;2023-04-26T13:06:15;221620.59;;;12.80
68440;BMP180;55421;51.600;5.718;2023-04-26T13:08:41;221589.80;;;12.76
68440;BMP180;55421;51.600;5.718;2023-04-26T13:11:08;221573.80;;;12.70
68440;BMP180;55421;51.600;5.718;2023-04-26T13:13:34;221479.59;;;12.54
68440;BMP180;55421;51.600;5.718;2023-04-26T13:16:01;221343.80;;;12.30
68440;BMP180;55421;51.600;5.718;2023-04-26T13:18:28;221284.59;;;12.20
68440;BMP180;55421;51.600;5.718;2023-04-26T13:20:54;221308.80;;;12.28
68440;BMP180;55421;51.600;5.718;2023-04-26T13:23:21;221308.80;;;12.24
68440;BMP180;55421;51.600;5.718;2023-04-26T13:25:47;221241.41;;;12.10
68440;BMP180;55421;51.600;5.718;2023-04-26T13:28:14;221160.41;;;12.00
68440;BMP180;55421;51.600;5.718;2023-04-26T13:30:40;221050.59;;;11.80
68440;BMP180;55421;51.600;5.718;2023-04-26T13:33:07;220993.20;;;11.70
68440;BMP180;55421;51.600;5.718;2023-04-26T13:35:34;220952.80;;;11.60
68440;BMP180;55421;51.600;5.718;2023-04-26T13:38:01;220956.00;;;11.60
68440;BMP180;55421;51.600;5.718;2023-04-26T13:40:30;220930.80;;;11.60
68440;BMP180;55421;51.600;5.718;2023-04-26T13:42:56;220901.59;;;11.50
68440;BMP180;55421;51.600;5.718;2023-04-26T13:45:23;220904.41;;;11.50
68440;BMP180;55421;51.600;5.718;2023-04-26T13:47:49;220889.20;;;11.50
68440;BMP180;55421;51.600;5.718;2023-04-26T13:50:17;220891.20;;;11.50
68440;BMP180;55421;51.600;5.718;2023-04-26T13:52:43;220905.59;;;11.50
68440;BMP180;55421;51.600;5.718;2023-04-26T13:55:10;220968.41;;;11.66
68440;BMP180;55421;51.600;5.718;2023-04-26T13:57:36;221000.41;;;11.70
68440;BMP180;55421;51.600;5.718;2023-04-26T14:00:04;220970.00;;;11.64
68440;BMP180;55421;51.600;5.718;2023-04-26T14:02:31;220933.59;;;11.60
68440;BMP180;55421;51.600;5.718;2023-04-26T14:04:58;220976.00;;;11.68
68440;BMP180;55421;51.600;5.718;2023-04-26T14:07:24;221064.00;;;11.80
68440;BMP180;55421;51.600;5.718;2023-04-26T14:09:51;221086.41;;;11.84
68440;BMP180;55421;51.600;5.718;2023-04-26T14:12:18;221131.59;;;11.90
68440;BMP180;55421;51.600;5.718;2023-04-26T14:14:44;221229.41;;;12.10
68440;BMP180;55421;51.600;5.718;2023-04-26T14:17:12;221331.80;;;12.30
68440;BMP180;55421;51.600;5.718;2023-04-26T14:19:39;221371.00;;;12.38
68440;BMP180;55421;51.600;5.718;2023-04-26T14:22:05;221360.20;;;12.32